Time;durP1;ratioP1;P1;durP2;ratioP2;P2;SDS_P1;SDS_P2;PMS_P1;PMS_P2;Temp;Humidity;BMP_temperature;BMP_pressure;BME280_temperature;BME280_humidity;BME280_pressure;Samples;Min_cycle;Max_cycle;Signal;HPM_P1;HPM_P2
2024/03/01 00:01:13;;;;;;;115.30;48.35;;;3.40;99.90;;;;;;5121718;27;20032;-77
2024/03/01 00:04:01;;;;;;;118.53;48.13;;;3.30;99.90;;;;;;5128000;27;20248;-81
2024/03/01 00:06:48;;;;;;;119.03;49.00;;;3.20;99.90;;;;;;5124672;27;20066;-78
2024/03/01 00:09:36;;;;;;;123.40;47.25;;;3.30;99.90;;;;;;5117495;27;20047;-82
2024/03/01 00:12:25;;;;;;;117.28;47.15;;;3.30;99.90;;;;;;5095851;27;20123;-78
2024/03/01 00:15:14;;;;;;;108.85;45.28;;;3.40;83.20;;;;;;5109115;27;20119;-82
2024/03/01 00:18:01;;;;;;;114.10;46.15;;;3.40;59.10;;;;;;5113718;27;20040;-75
2024/03/01 00:20:50;;;;;;;110.35;48.40;;;3.40;54.10;;;;;;5114395;27;20055;-81
2024/03/01 00:23:39;;;;;;;107.00;47.20;;;3.50;99.90;;;;;;5105960;27;20094;-78
2024/03/01 00:26:26;;;;;;;106.18;45.72;;;3.60;99.90;;;;;;5126355;27;20028;-77
2024/03/01 00:29:15;;;;;;;102.82;45.28;;;3.60;99.90;;;;;;5111557;27;20537;-81
2024/03/01 00:32:02;;;;;;;99.53;44.47;;;3.60;99.90;;;;;;5101855;27;20047;-81
2024/03/01 00:34:50;;;;;;;92.75;42.25;;;3.70;99.90;;;;;;5105873;27;20044;-83
2024/03/01 00:37:37;;;;;;;95.80;43.67;;;3.70;95.70;;;;;;5104502;27;20146;-83
2024/03/01 00:40:27;;;;;;;101.82;45.30;;;3.70;35.10;;;;;;5103202;27;20797;-80
2024/03/01 00:43:15;;;;;;;97.70;44.40;;;3.70;2.60;;;;;;5107145;27;20518;-81
2024/03/01 00:46:03;;;;;;;92.57;43.60;;;3.60;1.00;;;;;;5092974;28;20403;-83
2024/03/01 00:48:53;;;;;;;91.10;42.00;;;3.60;1.00;;;;;;5112679;27;20059;-80
2024/03/01 00:51:43;;;;;;;100.93;43.63;;;3.60;1.00;;;;;;5102441;27;20051;-80
2024/03/01 00:54:32;;;;;;;102.22;44.00;;;3.70;1.00;;;;;;5120763;27;20301;-78
2024/03/01 00:57:19;;;;;;;91.30;41.20;;;3.70;1.00;;;;;;5121328;28;20032;-76
2024/03/01 01:00:08;;;;;;;93.05;40.05;;;3.60;99.90;;;;;;5124314;28;20142;-82
2024/03/01 01:02:57;;;;;;;83.70;39.70;;;3.20;1.00;;;;;;5102191;27;20415;-81
2024/03/01 01:05:45;;;;;;;111.10;46.55;;;3.00;99.90;;;;;;5099923;27;20046;-83
2024/03/01 01:08:32;;;;;;;102.25;43.65;;;3.10;99.90;;;;;;5097981;27;20089;-82
2024/03/01 01:11:20;;;;;;;105.47;45.00;;;3.10;99.60;;;;;;5087420;27;20279;-82
2024/03/01 01:14:07;;;;;;;101.95;42.83;;;3.20;1.00;;;;;;5104183;27;20048;-82
2024/03/01 01:16:56;;;;;;;88.05;42.83;;;3.30;40.90;;;;;;5097716;27;20552;-82
2024/03/01 01:19:43;;;;;;;93.85;41.90;;;3.30;1.00;;;;;;5103826;27;20044;-83
2024/03/01 01:22:31;;;;;;;90.30;41.80;;;3.30;28.90;;;;;;5101238;27;20384;-82
2024/03/01 01:25:18;;;;;;;95.30;42.65;;;3.30;99.90;;;;;;5098311;27;20046;-79
2024/03/01 01:28:07;;;;;;;87.82;41.08;;;3.30;99.90;;;;;;5088776;28;20036;-82
2024/03/01 01:30:54;;;;;;;95.85;40.28;;;3.30;27.30;;;;;;5112633;27;20050;-79
2024/03/01 01:33:42;;;;;;;92.25;42.05;;;3.30;1.00;;;;;;5085158;28;20707;-76
2024/03/01 01:36:29;;;;;;;101.70;43.28;;;3.30;99.90;;;;;;5107250;28;20059;-81
2024/03/01 01:39:18;;;;;;;100.50;45.30;;;3.40;99.90;;;;;;5105852;28;20054;-78
2024/03/01 01:42:05;;;;;;;94.63;41.53;;;3.40;99.90;;;;;;5104415;27;20069;-79
2024/03/01 01:44:52;;;;;;;78.97;39.10;;;3.40;99.90;;;;;;5092401;28;20074;-82
2024/03/01 01:47:40;;;;;;;98.90;41.58;;;3.40;1.00;;;;;;5100731;28;20040;-82
2024/03/01 01:50:28;;;;;;;98.22;43.65;;;3.40;1.00;;;;;;5098274;28;20051;-81
2024/03/01 01:53:17;;;;;;;103.97;46.08;;;3.40;1.00;;;;;;5097415;27;20146;-82
2024/03/01 01:56:14;;;;;;;111.80;47.50;;;3.40;73.60;;;;;;5084930;28;20036;-78
2024/03/01 01:59:02;;;;;;;104.57;46.72;;;3.50;99.90;;;;;;5096930;27;20044;-83
2024/03/01 02:01:50;;;;;;;117.22;48.50;;;3.60;99.90;;;;;;5084216;28;20094;-82
2024/03/01 02:04:39;;;;;;;109.40;46.97;;;3.60;99.90;;;;;;5094502;27;20040;-79
2024/03/01 02:07:28;;;;;;;95.45;40.92;;;3.60;99.90;;;;;;5098729;28;20122;-81
2024/03/01 02:10:19;;;;;;;88.93;40.45;;;3.40;99.90;;;;;;5087372;28;20044;-78
2024/03/01 02:13:18;;;;;;;81.40;39.10;;;3.20;99.90;;;;;;5100962;27;20059;-83
2024/03/01 02:16:10;;;;;;;83.72;38.60;;;3.00;1.00;;;;;;5105088;27;20443;-82
2024/03/01 02:18:58;;;;;;;87.00;39.45;;;2.90;1.00;;;;;;5112250;27;20048;-78
2024/03/01 02:22:01;;;;;;;99.38;42.85;;;2.80;1.00;;;;;;5091965;28;20652;-81
2024/03/01 02:24:50;;;;;;;96.70;43.00;;;2.80;99.90;;;;;;5119964;28;20036;-79
2024/03/01 02:27:37;;;;;;;107.90;44.22;;;2.90;1.00;;;;;;5114781;27;20147;-80
2024/03/01 02:30:25;;;;;;;103.50;46.38;;;3.10;99.90;;;;;;5095550;28;20031;-75
2024/03/01 02:33:12;;;;;;;100.47;44.25;;;3.20;1.00;;;;;;5131187;27;20045;-76
2024/03/01 02:35:59;;;;;;;100.28;43.78;;;3.30;1.00;;;;;;5095208;27;20107;-81
2024/03/01 02:38:47;;;;;;;108.55;47.75;;;3.30;1.00;;;;;;5083936;28;20458;-78
2024/03/01 02:41:34;;;;;;;112.38;46.67;;;3.40;27.30;;;;;;5099795;28;20079;-83
2024/03/01 02:44:22;;;;;;;101.30;46.13;;;3.50;1.00;;;;;;5086336;28;20054;-80
2024/03/01 02:47:10;;;;;;;109.95;46.78;;;3.40;1.00;;;;;;5109008;27;20726;-81
2024/03/01 02:49:59;;;;;;;110.28;47.28;;;3.40;1.00;;;;;;5077105;28;20043;-82
2024/03/01 02:52:49;;;;;;;115.15;48.15;;;3.50;1.00;;;;;;5097647;27;20587;-81
2024/03/01 02:55:37;;;;;;;102.07;45.25;;;3.60;1.00;;;;;;5099657;28;20047;-82
2024/03/01 02:58:25;;;;;;;106.35;47.20;;;3.70;1.00;;;;;;5104849;27;20053;-81
2024/03/01 03:01:14;;;;;;;108.88;46.03;;;3.80;4.40;;;;;;5101458;28;20051;-79
2024/03/01 03:04:03;;;;;;;114.07;47.63;;;3.80;1.00;;;;;;5090534;28;20047;-82
2024/03/01 03:06:51;;;;;;;95.70;44.25;;;3.80;1.00;;;;;;5104807;28;20040;-80
2024/03/01 03:09:46;;;;;;;84.70;39.75;;;3.90;1.00;;;;;;5111886;28;20041;-80
2024/03/01 03:12:36;;;;;;;76.50;36.72;;;3.60;99.90;;;;;;5110625;28;20342;-81
2024/03/01 03:15:25;;;;;;;84.75;39.83;;;3.30;99.90;;;;;;5111216;28;20105;-78
2024/03/01 03:18:14;;;;;;;100.85;42.65;;;3.10;1.00;;;;;;5118294;28;20107;-82
2024/03/01 03:21:02;;;;;;;94.63;41.33;;;3.00;99.90;;;;;;5112707;28;20475;-78
2024/03/01 03:23:50;;;;;;;90.20;40.90;;;3.10;99.90;;;;;;5113551;28;20067;-77
2024/03/01 03:26:37;;;;;;;86.60;39.60;;;3.20;1.00;;;;;;5097904;28;20058;-79
2024/03/01 03:29:26;;;;;;;96.00;40.78;;;3.20;99.90;;;;;;5106296;28;20499;-78
2024/03/01 03:32:15;;;;;;;99.75;42.20;;;3.30;99.90;;;;;;5098147;28;20035;-81
2024/03/01 03:35:05;;;;;;;97.97;43.17;;;3.20;99.90;;;;;;5104639;28;20067;-81
2024/03/01 03:37:52;;;;;;;94.40;43.33;;;3.20;99.90;;;;;;5104036;28;20056;-80
2024/03/01 03:40:41;;;;;;;96.40;41.60;;;3.20;1.00;;;;;;5087808;28;20188;-79
2024/03/01 03:43:28;;;;;;;99.05;44.00;;;3.30;1.00;;;;;;5103629;28;20048;-81
2024/03/01 03:46:15;;;;;;;94.00;42.78;;;3.30;50.10;;;;;;5106502;28;20043;-80
2024/03/01 03:49:07;;;;;;;95.63;40.95;;;3.30;99.90;;;;;;5085271;28;20044;-80
2024/03/01 03:51:55;;;;;;;101.70;43.13;;;3.30;99.90;;;;;;5107773;28;20047;-76
2024/03/01 03:54:42;;;;;;;97.05;43.42;;;3.40;99.90;;;;;;5087810;28;20475;-80
2024/03/01 03:57:31;;;;;;;105.25;45.95;;;3.40;99.90;;;;;;5111200;28;20050;-78
2024/03/01 04:00:19;;;;;;;103.50;44.88;;;3.40;99.90;;;;;;5111188;27;20047;-81
2024/03/01 04:03:07;;;;;;;99.30;44.00;;;3.50;99.90;;;;;;5101831;27;20040;-80
2024/03/01 04:05:55;;;;;;;105.63;45.42;;;3.50;1.00;;;;;;5103599;27;20046;-79
2024/03/01 04:08:43;;;;;;;104.80;46.75;;;3.60;1.00;;;;;;5090493;28;20051;-82
2024/03/01 04:11:30;;;;;;;104.60;45.90;;;3.70;1.00;;;;;;5103258;27;20047;-80
2024/03/01 04:14:18;;;;;;;106.30;45.58;;;3.70;1.00;;;;;;5101200;27;20050;-82
2024/03/01 04:17:10;;;;;;;104.55;43.67;;;3.70;1.00;;;;;;5089581;28;20054;-80
2024/03/01 04:20:00;;;;;;;97.50;43.03;;;3.60;1.00;;;;;;5107632;27;20092;-83
2024/03/01 04:22:49;;;;;;;89.25;41.80;;;3.60;99.90;;;;;;5103802;28;20044;-80
2024/03/01 04:25:39;;;;;;;103.50;42.90;;;3.60;99.90;;;;;;5104013;27;20035;-79
2024/03/01 04:28:27;;;;;;;94.70;41.83;;;3.60;99.90;;;;;;5089474;27;20032;-79
2024/03/01 04:31:14;;;;;;;102.70;45.03;;;3.60;1.00;;;;;;5087106;28;20120;-79
2024/03/01 04:34:05;;;;;;;103.80;43.35;;;3.60;1.00;;;;;;5112037;28;20061;-82
2024/03/01 04:36:58;;;;;;;101.68;43.90;;;3.60;1.00;;;;;;5114837;27;20615;-79
2024/03/01 04:39:46;;;;;;;108.88;46.95;;;3.60;1.00;;;;;;5129354;27;20039;-79
2024/03/01 04:42:36;;;;;;;102.63;44.08;;;3.60;2.00;;;;;;5116413;27;20035;-83
2024/03/01 04:45:26;;;;;;;103.70;46.38;;;3.60;75.30;;;;;;5108422;27;20064;-78
2024/03/01 04:48:14;;;;;;;111.45;46.80;;;3.70;99.90;;;;;;5110272;27;21775;-81
2024/03/01 04:51:01;;;;;;;94.32;42.15;;;3.70;99.90;;;;;;5115165;27;20046;-79
2024/03/01 04:53:49;;;;;;;91.78;39.90;;;3.70;65.00;;;;;;5099655;27;20040;-80
2024/03/01 04:56:38;;;;;;;83.15;38.40;;;3.50;1.00;;;;;;5089336;28;20058;-82
2024/03/01 04:59:28;;;;;;;91.28;41.00;;;3.50;1.00;;;;;;5106865;27;20035;-80
2024/03/01 05:02:20;;;;;;;92.78;40.05;;;3.50;1.00;;;;;;5096979;28;20028;-78
2024/03/01 05:05:12;;;;;;;84.40;38.88;;;3.40;1.00;;;;;;5087105;28;20043;-82
2024/03/01 05:07:59;;;;;;;89.03;40.00;;;3.40;1.00;;;;;;5104955;27;20490;-82
2024/03/01 05:10:49;;;;;;;90.53;41.30;;;3.40;1.00;;;;;;5091279;27;20040;-81
2024/03/01 05:13:37;;;;;;;87.30;40.80;;;3.50;1.00;;;;;;5099992;27;20070;-80
2024/03/01 05:16:25;;;;;;;90.30;41.60;;;3.50;1.00;;;;;;5103824;28;20087;-81
2024/03/01 05:19:15;;;;;;;96.30;41.35;;;3.50;23.00;;;;;;5110567;27;20071;-77
2024/03/01 05:22:03;;;;;;;96.15;41.20;;;3.60;92.30;;;;;;5126408;27;20054;-79
2024/03/01 05:24:55;;;;;;;97.35;42.38;;;3.60;99.90;;;;;;5107266;27;20062;-81
2024/03/01 05:27:56;;;;;;;89.13;41.85;;;3.70;99.90;;;;;;5095769;27;20043;-81
2024/03/01 05:30:45;;;;;;;101.80;43.03;;;3.70;99.90;;;;;;5105471;27;20039;-80
2024/03/01 05:33:39;;;;;;;102.30;43.60;;;3.80;99.90;;;;;;5118851;27;20052;-78
2024/03/01 05:36:27;;;;;;;98.82;41.90;;;3.90;99.90;;;;;;5101871;27;20059;-79
2024/03/01 05:39:18;;;;;;;104.60;44.42;;;3.80;99.90;;;;;;5111863;27;20043;-78
2024/03/01 05:42:06;;;;;;;116.20;48.90;;;3.80;99.90;;;;;;5109675;28;20043;-82
2024/03/01 05:44:53;;;;;;;112.95;50.47;;;4.00;99.90;;;;;;5100634;28;20050;-83
2024/03/01 05:47:47;;;;;;;112.05;49.83;;;4.10;99.90;;;;;;5101791;27;20446;-80
2024/03/01 05:50:34;;;;;;;124.57;49.92;;;4.40;99.90;;;;;;5103742;27;20040;-82
2024/03/01 05:53:22;;;;;;;115.47;49.00;;;4.50;99.90;;;;;;5089941;27;20050;-79
2024/03/01 05:56:17;;;;;;;106.50;49.35;;;4.70;39.50;;;;;;5104822;27;20047;-80
2024/03/01 05:59:06;;;;;;;104.75;48.10;;;4.90;99.90;;;;;;5083424;27;20042;-78
2024/03/01 06:01:54;;;;;;;95.22;43.65;;;5.00;1.00;;;;;;5091002;28;20038;-78
2024/03/01 06:04:42;;;;;;;90.55;41.97;;;5.10;10.40;;;;;;5103270;27;20054;-79
2024/03/01 06:07:30;;;;;;;90.82;41.85;;;5.20;99.90;;;;;;5088104;27;20040;-79
2024/03/01 06:10:17;;;;;;;79.72;39.45;;;5.30;99.90;;;;;;5109774;27;20044;-78
2024/03/01 06:13:05;;;;;;;82.60;38.63;;;5.40;50.90;;;;;;5118568;27;20039;-75
2024/03/01 06:15:53;;;;;;;75.03;36.45;;;5.50;99.90;;;;;;5123941;27;20020;-75
2024/03/01 06:18:40;;;;;;;73.53;36.45;;;5.40;72.10;;;;;;5085734;28;20094;-78
2024/03/01 06:21:28;;;;;;;75.70;38.00;;;5.40;1.00;;;;;;5128206;27;20023;-77
2024/03/01 06:24:15;;;;;;;72.63;35.30;;;5.40;99.90;;;;;;5126155;28;20039;-75
2024/03/01 06:27:02;;;;;;;72.60;33.65;;;5.40;6.90;;;;;;5103235;27;20036;-77
2024/03/01 06:29:50;;;;;;;74.55;36.80;;;5.50;1.00;;;;;;5087122;28;20042;-79
2024/03/01 06:32:37;;;;;;;76.22;34.72;;;5.50;99.90;;;;;;5086431;28;20051;-79
2024/03/01 06:35:26;;;;;;;66.75;33.08;;;5.50;99.90;;;;;;5083986;28;20485;-78
2024/03/01 06:38:13;;;;;;;71.40;34.67;;;5.50;1.00;;;;;;5104185;27;20039;-79
2024/03/01 06:41:02;;;;;;;67.35;32.83;;;5.60;1.00;;;;;;5089491;27;20039;-77
2024/03/01 06:43:50;;;;;;;63.47;31.58;;;5.60;99.90;;;;;;5076939;27;20105;-78
2024/03/01 06:46:38;;;;;;;62.45;31.00;;;5.60;99.90;;;;;;5101594;27;20431;-79
2024/03/01 06:49:25;;;;;;;62.00;31.00;;;5.70;12.50;;;;;;5098567;27;20089;-76
2024/03/01 06:52:14;;;;;;;60.78;30.52;;;5.70;1.00;;;;;;5073040;28;20047;-75
2024/03/01 06:55:03;;;;;;;56.45;29.45;;;5.80;99.90;;;;;;5104713;28;20055;-80
2024/03/01 06:57:51;;;;;;;59.97;29.02;;;5.80;99.90;;;;;;5097887;27;20043;-77
2024/03/01 07:00:46;;;;;;;57.35;30.40;;;5.80;99.90;;;;;;5111400;27;20172;-80
2024/03/01 07:03:35;;;;;;;57.35;29.05;;;5.80;80.60;;;;;;5121546;27;20030;-79
2024/03/01 07:06:23;;;;;;;56.42;29.25;;;5.90;1.00;;;;;;5121065;27;20039;-78
2024/03/01 07:09:13;;;;;;;55.75;28.25;;;6.00;1.00;;;;;;5109308;28;20043;-81
2024/03/01 07:12:01;;;;;;;58.15;28.70;;;6.10;1.00;;;;;;5102009;28;20044;-78
2024/03/01 07:14:50;;;;;;;50.53;27.27;;;6.10;99.90;;;;;;5070520;28;20673;-78
2024/03/01 07:17:38;;;;;;;48.33;26.73;;;6.20;99.90;;;;;;5107369;28;20377;-82
2024/03/01 07:20:28;;;;;;;46.20;24.98;;;6.20;99.90;;;;;;5098761;28;20040;-81
2024/03/01 07:23:16;;;;;;;46.95;25.02;;;6.30;99.90;;;;;;5096240;28;20463;-78
2024/03/01 07:26:04;;;;;;;42.80;23.42;;;6.40;31.60;;;;;;5086205;27;20047;-80
2024/03/01 07:28:54;;;;;;;43.40;23.90;;;6.50;1.00;;;;;;5101866;28;20046;-81
2024/03/01 07:31:45;;;;;;;47.53;24.63;;;6.50;1.00;;;;;;5088255;28;20052;-82
2024/03/01 07:34:32;;;;;;;46.55;23.00;;;6.60;1.00;;;;;;5099389;27;20050;-83
2024/03/01 07:37:20;;;;;;;37.40;22.80;;;6.60;99.90;;;;;;5076612;28;20456;-78
2024/03/01 07:40:10;;;;;;;51.28;24.95;;;6.70;99.90;;;;;;5105297;28;20058;-83
2024/03/01 07:42:58;;;;;;;43.55;23.40;;;6.70;99.90;;;;;;5092371;27;20088;-76
2024/03/01 07:45:46;;;;;;;48.90;25.08;;;6.70;99.90;;;;;;5118502;27;20044;-80
2024/03/01 07:48:34;;;;;;;40.00;21.70;;;6.80;99.90;;;;;;5104790;27;20118;-83
2024/03/01 07:51:22;;;;;;;41.60;23.70;;;6.90;99.90;;;;;;5112661;27;20129;-79
2024/03/01 07:54:09;;;;;;;42.08;21.45;;;7.00;99.90;;;;;;5108643;27;20052;-79
2024/03/01 07:56:58;;;;;;;39.92;22.38;;;7.00;99.90;;;;;;5108018;27;20160;-81
2024/03/01 07:59:45;;;;;;;41.10;22.95;;;7.00;99.90;;;;;;5104683;27;20074;-81
2024/03/01 08:02:33;;;;;;;37.75;21.42;;;7.10;99.90;;;;;;5102285;27;20039;-79
2024/03/01 08:05:20;;;;;;;40.65;19.58;;;7.20;74.20;;;;;;5083860;27;20059;-77
2024/03/01 08:08:10;;;;;;;37.00;18.98;;;7.20;30.90;;;;;;5104187;27;20055;-82
2024/03/01 08:11:11;;;;;;;30.43;17.03;;;7.30;8.40;;;;;;5100757;27;20043;-81
2024/03/01 08:14:03;;;;;;;49.33;24.15;;;7.40;1.00;;;;;;5101844;27;20728;-81
2024/03/01 08:16:55;;;;;;;44.75;24.40;;;7.40;1.00;;;;;;5111269;27;20122;-79
2024/03/01 08:19:45;;;;;;;;;;;7.30;1.00;;;;;;5122536;27;20050;-78
2024/03/01 08:22:32;;;;;;;39.15;21.52;;;7.30;1.00;;;;;;5124304;27;20005;-79
2024/03/01 08:25:20;;;;;;;43.50;22.08;;;7.30;1.00;;;;;;5121473;27;20035;-77
2024/03/01 08:28:09;;;;;;;45.72;25.10;;;7.30;1.00;;;;;;5091357;27;20052;-82
2024/03/01 08:31:03;;;;;;;42.08;22.58;;;7.30;1.00;;;;;;5102579;27;20039;-79
2024/03/01 08:34:10;;;;;;;37.85;21.30;;;7.10;1.00;;;;;;5103380;27;20048;-82
2024/03/01 08:37:01;;;;;;;42.10;21.80;;;7.10;1.00;;;;;;5083577;28;20040;-82
2024/03/01 08:39:51;;;;;;;42.30;21.48;;;7.00;1.00;;;;;;5103610;28;20167;-78
2024/03/01 08:42:39;;;;;;;37.80;20.42;;;7.10;1.00;;;;;;5096825;27;20044;-80
2024/03/01 08:45:44;;;;;;;38.78;20.20;;;7.10;1.00;;;;;;5105301;27;20048;-78
2024/03/01 08:48:33;;;;;;;29.98;16.85;;;7.20;1.00;;;;;;5113366;27;20040;-83
2024/03/01 08:51:30;;;;;;;35.00;18.10;;;7.20;1.00;;;;;;5118489;27;20043;-81
2024/03/01 08:54:26;;;;;;;29.67;16.13;;;7.20;1.00;;;;;;5083415;27;20039;-78
2024/03/01 08:57:33;;;;;;;31.35;15.07;;;7.20;1.00;;;;;;5118845;27;20058;-79
2024/03/01 09:00:26;;;;;;;35.17;15.75;;;7.20;1.00;;;;;;5116978;27;21042;-83
2024/03/01 09:03:29;;;;;;;25.58;13.70;;;7.10;1.00;;;;;;5107122;27;20043;-82
2024/03/01 09:06:19;;;;;;;25.17;13.25;;;7.20;1.00;;;;;;5105840;27;20043;-81
2024/03/01 09:09:19;;;;;;;25.35;12.00;;;7.20;1.00;;;;;;5119337;27;20130;-79
2024/03/01 09:12:19;;;;;;;21.00;12.07;;;7.20;1.00;;;;;;5113085;27;20057;-80
2024/03/01 09:15:14;;;;;;;23.95;12.13;;;7.20;1.10;;;;;;5128798;27;20027;-78
2024/03/01 09:18:06;;;;;;;22.98;12.52;;;7.10;18.00;;;;;;5113965;27;20044;-79
2024/03/01 09:20:55;;;;;;;25.63;14.10;;;7.10;38.30;;;;;;5101245;27;20044;-81
2024/03/01 09:24:04;;;;;;;29.52;15.48;;;7.00;99.90;;;;;;5110366;27;20044;-82
2024/03/01 09:27:25;;;;;;;26.38;15.02;;;6.90;99.90;;;;;;5105411;27;20122;-78
2024/03/01 09:30:15;;;;;;;29.92;15.27;;;6.80;99.90;;;;;;5109359;27;20036;-76
2024/03/01 09:33:03;;;;;;;33.97;17.02;;;6.80;99.90;;;;;;5115008;28;20134;-80
2024/03/01 09:35:51;;;;;;;31.80;16.90;;;6.80;99.90;;;;;;5108917;28;20052;-79
2024/03/01 09:38:39;;;;;;;35.10;18.50;;;6.80;99.90;;;;;;5117359;27;20662;-80
2024/03/01 09:41:49;;;;;;;33.00;17.77;;;6.90;1.00;;;;;;5109751;28;20044;-82
2024/03/01 09:44:42;;;;;;;35.30;18.70;;;6.80;1.00;;;;;;5107465;27;20044;-80
2024/03/01 09:47:58;;;;;;;30.80;18.98;;;6.90;1.00;;;;;;5105765;27;20043;-81
2024/03/01 09:51:17;;;;;;;36.42;19.58;;;6.90;27.70;;;;;;5108621;27;20043;-79
2024/03/01 09:54:19;;;;;;;39.30;21.23;;;7.00;99.90;;;;;;5101417;27;20047;-76
2024/03/01 09:57:20;;;;;;;43.47;20.67;;;6.90;99.90;;;;;;5085270;28;20048;-78
2024/03/01 10:00:20;;;;;;;39.00;20.38;;;6.90;99.90;;;;;;5101644;27;20633;-76
2024/03/01 10:03:28;;;;;;;40.55;21.30;;;6.90;99.90;;;;;;5095361;27;20039;-79
2024/03/01 10:06:40;;;;;;;40.05;21.02;;;6.90;1.00;;;;;;5106579;27;20044;-78
2024/03/01 10:10:04;;;;;;;39.33;19.17;;;6.90;1.00;;;;;;5102434;27;20043;-77
2024/03/01 10:13:06;;;;;;;42.08;21.50;;;6.80;1.00;;;;;;5098159;27;20040;-81
2024/03/01 10:16:33;;;;;;;40.53;21.20;;;6.90;99.40;;;;;;5100427;27;21296;-77
2024/03/01 10:20:00;;;;;;;36.75;20.33;;;6.90;99.90;;;;;;5099352;27;20051;-79
2024/03/01 10:23:05;;;;;;;39.92;20.63;;;7.00;99.90;;;;;;5101123;27;20051;-81
2024/03/01 10:26:04;;;;;;;37.53;19.58;;;7.00;99.90;;;;;;5107979;27;20514;-81
2024/03/01 10:29:11;;;;;;;35.78;19.65;;;7.10;99.90;;;;;;5108773;27;20040;-80
2024/03/01 10:32:33;;;;;;;36.20;17.52;;;7.20;1.00;;;;;;5100323;27;20419;-80
2024/03/01 10:35:26;;;;;;;31.75;18.42;;;7.30;1.00;;;;;;5102518;27;20036;-79
2024/03/01 10:38:36;;;;;;;30.08;16.40;;;7.40;1.00;;;;;;5100220;27;20153;-78
2024/03/01 10:41:32;;;;;;;26.27;15.80;;;7.40;99.90;;;;;;5100604;27;20071;-76
2024/03/01 10:44:47;;;;;;;30.48;16.55;;;7.40;99.90;;;;;;5091293;28;20101;-79
2024/03/01 10:47:35;;;;;;;32.38;16.27;;;7.50;99.90;;;;;;5085527;27;20046;-81
2024/03/01 10:50:34;;;;;;;28.88;15.20;;;7.50;99.90;;;;;;5109845;27;20099;-81
2024/03/01 10:53:30;;;;;;;26.52;15.52;;;7.50;99.90;;;;;;5099277;28;20040;-79
2024/03/01 10:56:20;;;;;;;31.80;15.98;;;7.60;99.90;;;;;;5098011;27;20047;-78
2024/03/01 10:59:25;;;;;;;29.27;16.90;;;7.70;99.90;;;;;;5097180;27;20040;-81
2024/03/01 11:02:26;;;;;;;27.38;15.45;;;7.90;99.90;;;;;;5103744;27;20400;-78
2024/03/01 11:05:40;;;;;;;25.45;15.00;;;8.00;93.00;;;;;;5116642;27;20085;-77
2024/03/01 11:08:42;;;;;;;24.42;14.25;;;8.30;6.80;;;;;;5101126;28;20040;-77
2024/03/01 11:11:35;;;;;;;22.08;13.55;;;8.40;1.00;;;;;;5101777;28;20134;-78
2024/03/01 11:14:26;;;;;;;25.48;13.15;;;8.60;1.00;;;;;;5090637;28;20044;-83
2024/03/01 11:17:16;;;;;;;23.17;12.65;;;8.80;99.90;;;;;;5081728;28;20513;-79
2024/03/01 11:20:27;;;;;;;20.08;11.50;;;8.80;99.90;;;;;;5102364;28;20067;-80
2024/03/01 11:23:28;;;;;;;19.88;12.07;;;9.00;99.90;;;;;;5104780;28;20043;-78
2024/03/01 11:26:26;;;;;;;18.63;11.52;;;9.40;1.00;;;;;;5085911;28;20053;-78
2024/03/01 11:29:45;;;;;;;21.50;12.80;;;9.50;1.00;;;;;;5105371;28;20035;-80
2024/03/01 11:32:36;;;;;;;32.88;18.88;;;9.80;1.00;;;;;;5100615;28;20042;-79
2024/03/01 11:35:34;;;;;;;20.17;11.27;;;10.00;99.90;;;;;;5097541;28;20058;-80
2024/03/01 11:38:34;;;;;;;21.48;11.60;;;10.20;99.90;;;;;;5094651;28;20127;-81
2024/03/01 11:41:25;;;;;;;21.20;11.95;;;10.60;99.90;;;;;;5101517;28;20753;-83
2024/03/01 11:44:34;;;;;;;22.52;11.35;;;10.50;99.90;;;;;;5100426;28;20138;-82
2024/03/01 11:47:44;;;;;;;20.73;11.32;;;10.20;99.90;;;;;;5100666;28;20308;-81
2024/03/01 11:50:47;;;;;;;18.55;11.35;;;9.90;99.90;;;;;;5113864;28;20074;-77
2024/03/01 11:53:49;;;;;;;19.27;11.40;;;10.00;99.90;;;;;;5114888;28;20086;-78
2024/03/01 11:56:51;;;;;;;21.17;10.50;;;10.00;99.90;;;;;;5107841;28;20027;-76
2024/03/01 11:59:48;;;;;;;18.40;9.90;;;9.90;99.90;;;;;;5101118;27;20163;-79
2024/03/01 12:03:00;;;;;;;17.48;9.57;;;9.90;99.90;;;;;;5112107;28;20039;-79
2024/03/01 12:06:39;;;;;;;10.40;7.00;;;10.00;97.20;;;;;;5094987;28;20044;-78
2024/03/01 12:09:52;;;;;;;13.30;7.60;;;10.10;50.00;;;;;;5104614;28;20072;-76
2024/03/01 12:12:50;;;;;;;15.40;8.88;;;10.30;11.00;;;;;;5099246;28;20048;-77
2024/03/01 12:16:00;;;;;;;13.60;8.60;;;10.40;1.00;;;;;;5099479;28;20522;-81
2024/03/01 12:18:59;;;;;;;15.02;8.80;;;10.20;1.00;;;;;;5109983;28;20040;-81
2024/03/01 12:22:28;;;;;;;14.15;8.50;;;10.00;1.00;;;;;;5097059;27;20044;-78
2024/03/01 12:25:22;;;;;;;16.00;9.30;;;9.80;1.00;;;;;;5116787;27;20079;-78
2024/03/01 12:28:40;;;;;;;15.40;8.45;;;10.10;1.00;;;;;;5105724;27;20103;-82
2024/03/01 12:32:07;;;;;;;16.10;8.60;;;10.20;1.00;;;;;;5095602;27;20062;-81
2024/03/01 12:34:55;;;;;;;14.80;8.57;;;10.10;1.00;;;;;;5091708;27;20118;-80
2024/03/01 12:37:51;;;;;;;14.93;8.13;;;10.20;1.00;;;;;;5100543;27;20045;-78
2024/03/01 12:41:01;;;;;;;14.60;8.60;;;10.10;1.00;;;;;;5101977;27;20044;-80
2024/03/01 12:44:08;;;;;;;10.75;6.97;;;9.80;1.00;;;;;;5101474;27;20047;-80
2024/03/01 12:47:08;;;;;;;13.32;8.07;;;9.70;1.00;;;;;;5102850;27;20048;-77
2024/03/01 12:50:33;;;;;;;10.88;7.20;;;9.70;1.00;;;;;;5104227;27;20039;-80
2024/03/01 12:53:49;;;;;;;10.80;7.65;;;9.70;1.00;;;;;;5098362;28;20155;-78
2024/03/01 12:56:48;;;;;;;11.85;8.02;;;9.80;1.00;;;;;;5098858;27;20058;-79
2024/03/01 12:59:50;;;;;;;12.48;8.00;;;10.20;1.00;;;;;;5106157;27;20048;-83
2024/03/01 13:02:48;;;;;;;13.27;7.95;;;10.20;1.00;;;;;;5103636;27;20105;-82
2024/03/01 13:05:36;;;;;;;11.40;7.03;;;10.10;1.00;;;;;;5106626;27;20067;-77
2024/03/01 13:08:39;;;;;;;11.70;6.97;;;10.10;1.00;;;;;;5109511;27;20055;-77
2024/03/01 13:11:29;;;;;;;15.45;7.68;;;10.00;1.00;;;;;;5127523;27;20066;-76
2024/03/01 13:14:25;;;;;;;13.02;7.25;;;10.00;1.00;;;;;;5114147;27;20047;-79
2024/03/01 13:17:25;;;;;;;11.15;7.38;;;10.00;1.00;;;;;;5093265;27;20044;-81
2024/03/01 13:20:27;;;;;;;10.50;6.90;;;10.20;1.00;;;;;;5091196;27;20047;-78
2024/03/01 13:23:42;;;;;;;10.82;7.20;;;10.40;1.00;;;;;;5100918;27;20556;-81
2024/03/01 13:27:00;;;;;;;12.55;7.15;;;10.60;1.00;;;;;;5107430;27;20115;-80
2024/03/01 13:29:52;;;;;;;12.55;7.35;;;10.60;1.00;;;;;;5098753;27;20036;-79
2024/03/01 13:32:50;;;;;;;10.75;6.90;;;10.70;99.90;;;;;;5110777;27;20143;-79
2024/03/01 13:35:42;;;;;;;9.00;6.65;;;10.70;99.90;;;;;;5106016;27;20601;-81
2024/03/01 13:39:10;;;;;;;13.07;7.15;;;10.50;99.90;;;;;;5072923;28;20126;-81
2024/03/01 13:42:16;;;;;;;7.65;5.28;;;10.30;99.90;;;;;;5109021;27;20407;-80
2024/03/01 13:45:14;;;;;;;7.85;5.05;;;10.20;99.90;;;;;;5106349;27;20043;-82
2024/03/01 13:48:07;;;;;;;6.97;5.25;;;10.10;99.90;;;;;;5099926;27;20036;-80
2024/03/01 13:51:00;;;;;;;9.30;5.65;;;10.10;99.90;;;;;;5102279;27;20035;-81
2024/03/01 13:53:50;;;;;;;6.47;4.50;;;10.00;99.90;;;;;;5107442;28;20047;-83
2024/03/01 13:56:45;;;;;;;6.57;3.83;;;9.90;99.90;;;;;;5106447;27;20051;-81
2024/03/01 13:59:35;;;;;;;5.45;3.17;;;9.80;99.90;;;;;;5086673;27;20503;-81
2024/03/01 14:02:27;;;;;;;4.47;3.60;;;9.90;99.90;;;;;;5106990;27;20050;-80
2024/03/01 14:05:17;;;;;;;7.00;3.95;;;9.90;99.90;;;;;;5109556;27;20039;-83
2024/03/01 14:08:20;;;;;;;4.78;3.33;;;9.80;99.90;;;;;;5088544;27;20153;-82
2024/03/01 14:11:12;;;;;;;6.85;3.63;;;9.70;99.90;;;;;;5103991;27;20247;-81
2024/03/01 14:14:00;;;;;;;4.63;2.60;;;9.70;99.90;;;;;;5103786;27;20452;-79
2024/03/01 14:16:47;;;;;;;2.72;2.22;;;9.60;99.90;;;;;;5101253;27;20051;-80
2024/03/01 14:19:36;;;;;;;4.55;2.00;;;9.50;99.90;;;;;;5098754;27;20040;-81
2024/03/01 14:22:25;;;;;;;2.17;2.00;;;9.50;99.90;;;;;;5100133;27;20039;-78
2024/03/01 14:25:18;;;;;;;2.30;2.00;;;9.50;99.90;;;;;;5093170;27;20078;-76
2024/03/01 14:28:14;;;;;;;2.28;1.83;;;9.60;99.90;;;;;;5090113;27;20046;-82
2024/03/01 14:31:09;;;;;;;3.20;1.77;;;9.60;99.90;;;;;;5099379;27;20063;-78
2024/03/01 14:33:58;;;;;;;3.15;1.75;;;9.70;99.90;;;;;;5108687;27;20500;-81
2024/03/01 14:36:52;;;;;;;2.28;1.88;;;9.80;99.90;;;;;;5096626;27;20035;-81
2024/03/01 14:39:40;;;;;;;1.98;1.70;;;9.90;99.90;;;;;;5089327;28;20059;-76
2024/03/01 14:42:27;;;;;;;3.63;2.03;;;10.00;99.90;;;;;;5105533;27;20039;-82
2024/03/01 14:45:22;;;;;;;3.60;1.92;;;10.20;99.90;;;;;;5121281;27;20083;-77
2024/03/01 14:48:11;;;;;;;2.38;1.95;;;10.40;99.90;;;;;;5092579;27;20045;-80
2024/03/01 14:51:09;;;;;;;2.67;1.75;;;10.40;99.90;;;;;;5129973;27;20047;-76
2024/03/01 14:54:16;;;;;;;2.67;2.10;;;10.50;99.90;;;;;;5118486;28;20089;-80
2024/03/01 14:57:07;;;;;;;2.88;2.05;;;10.60;99.90;;;;;;5094510;28;20069;-76